Latest Weather Observations for Avalon

IDV60901

Issued at 6:05 pm EST Thursday 21 August 2014 (issued every 10 minutes, with the page automatically refreshed every 10 minutes)

About weather observations | Map of Melbourne area stations | Latest observations for Melbourne area | Other Formats
Station Details ID: 087113 Name: AVALON AIRPORT Lat: -38.03 Lon: 144.48 Height: 10.6 m
Data from the previous 72 hours. | See also: Recent months at Avalon
Date/Time
EST
Tmp

°C
App
Tmp
°C
Dew
Point
°C
Rel
Hum
%
Delta-T

°C
Wind Press
QNH
hPa
Press
MSL
hPa
Rain
since
9 am
mm
Dir
 
Spd
km/h
Gust
km/h
Spd
kts
Gust
kts
21/06:00pm 10.6 7.7 8.2 85 1.2 ESE 13 13 7 7 1027.7 1027.7 0.0
21/05:30pm 11.5 9.1 8.7 83 1.4 SE 11 13 6 7 1027.5 1027.5 0.0
21/05:00pm 12.5 9.3 8.6 77 1.9 ESE 15 19 8 10 1027.2 1027.2 0.0
21/04:30pm 13.7 9.5 8.3 70 2.7 ESE 20 24 11 13 1026.9 1026.9 0.0
21/04:00pm 14.6 10.6 8.3 66 3.1 ESE 19 24 10 13 1026.9 1026.9 0.0
21/03:30pm 14.0 10.8 8.6 70 2.7 ESE 15 19 8 10 1027.0 1027.0 0.0
21/03:00pm 13.7 10.9 8.7 72 2.5 ESE 13 15 7 8 1027.1 1027.1 0.0
21/02:30pm 13.3 10.5 8.4 72 2.4 SE 13 15 7 8 1027.2 1027.2 0.0
21/02:00pm 12.9 9.3 8.4 74 2.2 ESE 17 20 9 11 1027.3 1027.3 0.0
21/01:30pm 12.8 9.3 8.9 77 2.0 ESE 17 20 9 11 1027.5 1027.5 0.0
21/01:00pm 12.8 9.7 8.7 76 2.0 ESE 15 19 8 10 1027.8 1027.8 0.0
21/12:30pm 12.0 8.6 7.5 74 2.2 SE 15 19 8 10 1028.2 1028.2 0.0
21/12:00pm 13.3 11.7 8.8 74 2.2 ESE 7 11 4 6 1028.5 1028.5 0.0
21/11:30am 12.1 11.6 8.0 76 2.0 CALM 0 7 0 4 1029.0 1029.0 0.0
21/11:00am 11.9 10.7 8.0 77 1.9 E 4 7 2 4 1029.3 1029.3 0.0
21/10:30am 11.0 9.1 6.9 76 1.9 NE 6 9 3 5 1029.6 1029.6 0.0
21/10:00am 10.4 8.9 6.9 79 1.6 E 4 7 2 4 1029.5 1029.5 0.0
21/09:30am 10.2 10.0 9.1 93 0.5 CALM 0 6 0 3 1029.5 1029.5 0.0
21/09:00am 8.6 6.9 8.5 99 0.0 WNW 7 9 4 5 1029.5 1029.5 0.0
21/08:30am 7.1 5.1 7.0 99 0.0 NW 7 9 4 5 1029.5 1029.5 0.0
21/08:00am 5.6 2.5 5.5 99 0.0 WNW 11 15 6 8 1029.2 1029.2 0.0
21/07:30am 3.9 -0.3 3.8 99 0.0 NNW 15 15 8 8 1028.9 1028.9 0.0
21/07:00am 4.1 2.0 4.0 99 0.0 ESE 4 9 2 5 1028.4 1028.4 0.0
21/06:30am 5.5 2.0 5.4 99 0.0 WSW 13 15 7 8 1028.2 1028.2 0.0
21/06:00am 5.5 3.1 5.4 99 0.0 WSW 7 11 4 6 1028.2 1028.2 0.0
21/05:30am 5.3 2.9 5.2 99 0.0 W 7 9 4 5 1028.3 1028.3 0.0
21/05:00am 5.1 2.6 5.0 99 0.0 WNW 7 9 4 5 1028.3 1028.3 0.0
21/04:30am 4.6 2.1 4.5 99 0.0 WNW 7 11 4 6 1028.2 1028.2 0.0
21/04:00am 3.9 0.8 3.8 99 0.0 NW 9 11 5 6 1028.0 1028.0 0.0
21/03:30am 3.9 0.5 3.8 99 0.0 W 11 13 6 7 1028.0 1028.0 0.0
21/03:00am 3.2 0.0 3.1 99 0.0 WNW 9 11 5 6 1028.1 1028.1 0.0
21/02:30am 2.7 -0.2 2.6 99 0.0 NW 7 9 4 5 1028.1 1028.1 0.0
21/02:00am 3.1 0.3 3.0 99 0.0 WNW 7 9 4 5 1028.1 1028.1 0.0
21/01:30am 3.5 0.4 3.4 99 0.0 NW 9 9 5 5 1028.1 1028.1 0.0
21/01:00am 3.5 0.0 3.4 99 0.0 NNW 11 13 6 7 1028.2 1028.2 0.0
21/12:30am 3.7 0.6 3.4 98 0.1 NNW 9 11 5 6 1028.1 1028.1 0.0
21/12:00am 4.7 1.8 4.4 98 0.1 NNW 9 11 5 6 1028.1 1028.1 0.0
 
Date/Time
EST
Tmp

°C
App
Tmp
°C
Dew
Point
°C
Rel
Hum
%
Delta-T

°C
Wind Press
QNH
hPa
Press
MSL
hPa
Rain
since
9 am
mm
Dir
 
Spd
km/h
Gust
km/h
Spd
kts
Gust
kts
20/11:30pm 5.3 2.8 5.0 98 0.1 WNW 7 7 4 4 1028.2 1028.2 0.0
20/11:00pm 4.8 2.4 4.1 95 0.3 W 6 7 3 4 1028.3 1028.3 0.0
20/10:30pm 6.0 3.8 5.3 95 0.3 SSW 6 6 3 3 1028.4 1028.4 0.0
20/10:00pm 6.9 4.3 6.3 96 0.3 S 9 11 5 6 1028.6 1028.6 0.0
20/09:30pm 6.8 3.7 5.6 92 0.5 S 11 13 6 7 1028.6 1028.6 0.0
20/09:00pm 7.3 4.4 4.9 85 1.0 S 9 11 5 6 1028.6 1028.6 0.0
20/08:30pm 7.5 4.2 4.8 83 1.2 S 11 13 6 7 1028.4 1028.4 0.0
20/08:00pm 9.0 6.0 6.1 82 1.3 S 11 11 6 6 1028.4 1028.4 0.0
20/07:30pm 9.5 7.1 7.1 85 1.1 SSE 9 11 5 6 1028.4 1028.4 0.0
20/07:00pm 9.7 6.5 6.8 82 1.3 S 13 15 7 8 1028.3 1028.3 0.0
20/06:30pm 9.2 6.2 5.8 79 1.6 S 11 15 6 8 1028.0 1028.0 0.0
20/06:00pm 10.6 7.7 6.7 77 1.8 S 11 13 6 7 1027.7 1027.7 0.0
20/05:30pm 11.0 8.1 6.7 75 2.0 S 11 13 6 7 1027.5 1027.5 0.0
20/05:00pm 11.5 9.0 6.4 71 2.4 S 9 13 5 7 1027.3 1027.3 0.0
20/04:30pm 12.0 8.4 5.2 63 3.1 S 13 15 7 8 1027.1 1027.1 0.0
20/04:00pm 12.0 7.9 6.1 67 2.8 S 17 20 9 11 1026.9 1026.9 0.0
20/03:30pm 12.2 8.4 5.6 64 3.1 S 15 19 8 10 1026.7 1026.7 0.0
20/03:00pm 12.8 9.8 4.3 56 3.8 SSW 9 15 5 8 1026.7 1026.7 0.0
20/02:30pm 12.4 8.8 4.9 60 3.4 SSW 13 17 7 9 1026.6 1026.6 0.0
20/02:00pm 12.2 8.4 6.0 66 2.9 SSW 15 19 8 10 1026.5 1026.5 0.0
20/01:30pm 12.3 8.9 6.1 66 2.9 S 13 17 7 9 1026.6 1026.6 0.0
20/01:00pm 12.2 8.2 6.5 68 2.7 SSW 17 24 9 13 1026.8 1026.8 0.0
20/12:30pm 12.8 8.7 6.2 64 3.1 SSW 17 24 9 13 1026.9 1026.9 0.0
20/12:00pm 12.8 9.5 6.6 66 2.9 SSW 13 19 7 10 1027.3 1027.3 0.0
20/11:30am 12.4 9.9 6.5 67 2.8 S 9 13 5 7 1027.5 1027.5 0.0
20/11:00am 12.3 9.0 6.4 67 2.8 S 13 17 7 9 1027.6 1027.6 0.0
20/10:30am 12.2 9.8 7.1 71 2.5 SSE 9 13 5 7 1027.6 1027.6 0.0
20/10:00am 11.5 9.1 7.0 74 2.1 ESE 9 13 5 7 1027.6 1027.6 0.0
20/09:30am 11.2 8.4 8.4 83 1.4 SSW 13 17 7 9 1027.5 1027.5 0.0
20/09:00am 10.4 9.0 8.7 89 0.8 WSW 6 7 3 4 1027.4 1027.4 0.0
20/08:30am 9.6 7.8 7.9 89 0.8 W 7 9 4 5 1027.2 1027.2 0.0
20/08:00am 9.1 7.2 7.7 91 0.7 NW 7 9 4 5 1026.9 1026.9 0.0
20/07:30am 8.5 7.8 7.1 91 0.7 CALM 0 0 0 0 1026.6 1026.6 0.0
20/07:00am 8.7 6.7 7.3 91 0.7 S 7 9 4 5 1026.4 1026.4 0.0
20/06:30am 8.3 6.3 6.4 88 0.9 W 6 7 3 4 1026.1 1026.1 0.0
20/06:00am 8.2 4.8 5.8 85 1.1 W 13 15 7 8 1025.9 1025.9 0.0
20/05:30am 8.0 5.3 5.8 86 1.0 WNW 9 13 5 7 1025.7 1025.7 0.0
20/05:00am 8.1 5.4 5.7 85 1.1 NW 9 11 5 6 1025.7 1025.7 0.0
20/04:30am 8.1 5.8 5.7 85 1.1 WNW 7 9 4 5 1025.6 1025.6 0.0
20/04:00am 8.8 7.0 5.5 80 1.5 W 4 9 2 5 1025.6 1025.6 0.0
20/03:30am 8.5 6.3 6.0 84 1.1 WNW 7 9 4 5 1025.6 1025.6 0.0
20/03:00am 9.0 7.0 6.1 82 1.3 W 6 7 3 4 1025.7 1025.7 0.0
20/02:30am 9.1 6.4 5.7 79 1.5 SSW 9 11 5 6 1025.7 1025.7 0.0
20/02:00am 9.7 6.8 4.9 72 2.1 SSE 9 11 5 6 1025.9 1025.9 0.0
20/01:30am 9.6 6.8 5.0 73 2.1 S 9 13 5 7 1026.1 1026.1 0.0
20/01:00am 9.4 6.6 5.2 75 1.9 SSE 9 13 5 7 1026.1 1026.1 0.0
20/12:30am 9.7 7.0 5.5 75 1.9 S 9 13 5 7 1026.1 1026.1 0.0
20/12:00am 9.6 6.8 5.2 74 2.0 S 9 11 5 6 1026.1 1026.1 0.0
 
Date/Time
EST
Tmp

°C
App
Tmp
°C
Dew
Point
°C
Rel
Hum
%
Delta-T

°C
Wind Press
QNH
hPa
Press
MSL
hPa
Rain
since
9 am
mm
Dir
 
Spd
km/h
Gust
km/h
Spd
kts
Gust
kts
19/11:30pm 10.4 6.3 4.3 66 2.7 S 15 20 8 11 1026.1 1026.1 0.0
19/11:00pm 10.0 6.1 5.2 72 2.2 S 15 19 8 10 1026.2 1026.2 0.0
19/10:30pm 10.1 6.3 5.7 74 2.0 S 15 19 8 10 1026.2 1026.2 0.0
19/10:00pm 10.0 6.7 6.3 78 1.7 S 13 15 7 8 1026.2 1026.2 0.0
19/09:30pm 9.6 7.2 7.2 85 1.1 S 9 11 5 6 1026.1 1026.1 0.0
19/09:00pm 9.8 7.4 7.2 84 1.2 S 9 9 5 5 1026.0 1026.0 0.0
19/08:30pm 10.0 7.6 7.1 82 1.4 S 9 11 5 6 1025.9 1025.9 0.0
19/08:00pm 10.2 8.1 6.5 78 1.7 SE 7 9 4 5 1025.8 1025.8 0.0
19/07:30pm 10.1 7.2 6.4 78 1.7 SSW 11 13 6 7 1025.7 1025.7 0.0
19/07:00pm 10.7 6.7 6.6 76 1.9 S 17 20 9 11 1025.6 1025.6 0.0
19/06:30pm 10.0 7.1 6.5 79 1.6 S 11 13 6 7 1025.3 1025.3 0.0
19/06:00pm 10.4 7.9 6.5 77 1.8 S 9 11 5 6 1024.9 1024.9 0.0
19/05:30pm 11.1 7.0 6.0 71 2.4 S 17 19 9 10 1024.7 1024.7 0.0
19/05:00pm 11.4 7.6 5.9 69 2.5 S 15 20 8 11 1024.6 1024.6 0.0
19/04:30pm 11.7 8.1 6.6 71 2.4 S 15 19 8 10 1024.6 1024.6 0.0
19/04:00pm 11.8 7.2 6.5 70 2.5 S 20 26 11 14 1024.4 1024.4 0.0
19/03:30pm 12.2 7.6 6.5 68 2.7 S 20 24 11 13 1024.3 1024.3 0.0
19/03:00pm 12.3 7.2 6.1 66 2.9 S 22 28 12 15 1024.2 1024.2 0.0
19/02:30pm 12.9 7.6 6.7 66 3.0 S 24 28 13 15 1024.1 1024.1 0.0
19/02:00pm 13.1 8.7 6.5 64 3.1 S 19 24 10 13 1024.0 1024.0 0.0
19/01:30pm 13.1 8.6 6.9 66 3.0 S 20 26 11 14 1024.3 1024.3 0.0
19/01:00pm 13.6 9.9 7.8 68 2.8 SSE 17 22 9 12 1024.5 1024.5 0.0
19/12:30pm 13.3 9.4 7.1 66 3.0 S 17 24 9 13 1024.7 1024.7 0.0
19/12:00pm 13.1 9.2 6.9 66 3.0 SSE 17 24 9 13 1025.0 1025.0 0.0
19/11:30am 12.8 8.9 7.3 69 2.7 SSE 17 22 9 12 1025.2 1025.2 0.0
19/11:00am 12.5 8.2 7.2 70 2.5 SSE 19 24 10 13 1025.4 1025.4 0.0
19/10:30am 12.4 8.7 7.9 74 2.2 S 17 20 9 11 1025.4 1025.4 0.0
19/10:00am 12.0 8.8 8.3 78 1.8 SSE 15 19 8 10 1025.4 1025.4 0.0
19/09:30am 11.5 9.0 8.4 81 1.5 SSE 11 15 6 8 1025.3 1025.3 0.0
19/09:00am 11.2 8.8 8.8 85 1.2 S 11 13 6 7 1025.1 1025.1 0.6
19/08:30am 10.7 8.7 8.6 87 1.0 S 9 11 5 6 1025.0 1025.0 0.6
19/08:00am 10.3 8.3 8.6 89 0.8 S 9 11 5 6 1024.7 1024.7 0.6
19/07:30am 10.2 7.3 8.1 87 1.0 S 13 19 7 10 1024.6 1024.6 0.6
19/07:00am 9.9 7.1 8.5 91 0.7 S 13 13 7 7 1024.3 1024.3 0.6
19/06:30am 9.5 7.5 8.6 94 0.4 S 9 11 5 6 1024.1 1024.1 0.6
19/06:00am 9.5 9.3 9.0 97 0.2 CALM 0 0 0 0 1023.8 1023.8 0.6
19/05:30am 9.5 8.9 9.0 97 0.2 W 2 6 1 3 1023.6 1023.6 0.6
19/05:00am 9.8 8.4 9.0 95 0.4 WSW 6 7 3 4 1023.5 1023.5 0.6
19/04:30am 9.9 7.6 9.1 95 0.4 SW 11 13 6 7 1023.3 1023.3 0.6
19/04:16am 9.9 7.2 9.0 94 0.4 SSW 13 19 7 10 1023.3 1023.3 0.6
19/04:00am 10.0 9.8 8.9 93 0.5 CALM 0 0 0 0 1023.3 1023.3 0.4
19/03:57am 10.0 9.8 8.9 93 0.5 CALM 0 0 0 0 1023.3 1023.3 0.4
19/03:30am 10.1 8.2 8.9 92 0.6 S 9 11 5 6 1023.2 1023.2 0.4
19/03:00am 10.1 7.4 8.9 92 0.6 S 13 17 7 9 1023.4 1023.4 0.4
19/02:30am 10.1 6.7 9.0 93 0.5 S 17 19 9 10 1023.4 1023.4 0.4
19/02:00am 10.1 6.8 9.5 96 0.3 S 17 24 9 13 1023.6 1023.6 0.4
19/01:30am 9.7 6.8 9.6 99 0.0 SSW 15 19 8 10 1023.6 1023.6 0.4
19/01:09am 9.7 6.4 9.6 99 0.0 S 17 20 9 11 1023.5 1023.5 0.4
19/01:00am 9.7 6.0 9.6 99 0.0 S 19 22 10 12 1023.5 1023.5 0.4
19/12:30am 10.0 6.4 9.9 99 0.1 S 19 22 10 12 1023.6 1023.6 0.4
19/12:16am 10.0 6.2 9.9 99 0.1 S 20 24 11 13 1023.6 1023.6 0.4
19/12:00am 10.1 6.9 9.9 99 0.1 S 17 22 9 12 1023.5 1023.5 0.4
 
Date/Time
EST
Tmp

°C
App
Tmp
°C
Dew
Point
°C
Rel
Hum
%
Delta-T

°C
Wind Press
QNH
hPa
Press
MSL
hPa
Rain
since
9 am
mm
Dir
 
Spd
km/h
Gust
km/h
Spd
kts
Gust
kts
18/11:30pm 10.2 6.5 9.6 96 0.3 S 19 24 10 13 1023.6 1023.6 0.4
18/11:00pm 10.4 7.1 9.6 95 0.4 S 17 20 9 11 1023.7 1023.7 0.4
18/10:30pm 10.1 8.0 9.6 97 0.3 SSW 11 13 6 7 1023.5 1023.5 0.4
18/10:00pm 10.1 7.5 9.3 95 0.4 SSW 13 15 7 8 1023.4 1023.4 0.4
18/09:30pm 10.3 6.9 9.2 93 0.5 S 17 19 9 10 1023.4 1023.4 0.4
18/09:00pm 10.2 6.9 9.4 95 0.4 SSE 17 24 9 13 1023.3 1023.3 0.4
18/08:44pm 10.3 7.7 9.4 94 0.4 S 13 15 7 8 1023.2 1023.2 0.4
18/08:30pm 10.5 6.5 9.1 91 0.7 SE 20 28 11 15 1023.1 1023.1 0.4
18/08:28pm 10.5 6.5 9.1 91 0.7 SE 20 28 11 15 1023.1 1023.1 0.4
18/08:00pm 10.9 7.8 9.0 88 0.9 SSE 15 17 8 9 1022.8 1022.8 0.4
18/07:30pm 10.7 8.0 8.8 88 0.9 SSE 13 17 7 9 1022.5 1022.5 0.4
18/07:00pm 10.5 8.7 9.6 94 0.4 S 9 19 5 10 1022.4 1022.4 0.4
18/06:30pm 10.7 8.9 9.5 92 0.6 SSE 9 13 5 7 1022.1 1022.1 0.4

Latest Capital City Observations: Canberra | Sydney | Melbourne | Brisbane | Adelaide | Perth | Hobart | Darwin

Other Formats:

Comma delimited format used in spreadsheet applications
http://www.bom.gov.au/fwo/IDV60901/IDV60901.94854.axf

JavaScript Object Notation format (JSON) in row-major order
http://www.bom.gov.au/fwo/IDV60901/IDV60901.94854.json